Flugplatz Marl-Loemühle

Für EDLM sind keine METAR/TAF Berichte vorhanden.
Es werden die Flugwettermeldungen vom Flugplatz Dortmund in 34 km Entfernung angezeigt.

Bericht für EDLW

vom 14.11. um 11:20 UTC

Wind 6 kt aus 90°

Sichtweite 10 km oder mehr

gute Sicht, keine Wolken < 5000 ft, keine CB, keine Wettererscheinungen (CAVOK)

Temperatur 7.0°C

Taupunkt 2.0°C

Luftfeuchtigkeit 70%

Luftdruck 1002 hPa

EDLW 141120Z 09006KT 050V120 CAVOK 07/02 Q1002

Prognose für EDLW

vom 14.11. um 00:00 UTC

Zwischen 00:00 UTC und 00:00 UTC

Wind 7 kt aus 80°

Sichtweite 10 km oder mehr

keine signifikanten Wettererscheinungen

keine Wolken


Am 15.11. zwischen 00:00 UTC und 00:00 UTC zeitweise mit einer Wahrscheinlichkeit von 30%

aufgebrochene Bewölkung in 700 ft

TAF EDLW 141100Z 1412/1512 08007KT CAVOK PROB30 TEMPO 1503/1510 BKN007
Impressum